KBOW/BOW METAR and TAF weather

Enter ICAO airport designator
Station Type Date Time Source
KBOW METAR 2022/01/25 05:15 UTC NOAA

KBOW 250515Z AUTO 00000KT 10SM CLR 07/05 A3003 RMK AO2


Station Type Date Time Source
KBOW Decoded METAR 2022/01/25 05:15 UTC NOAA

Bartow Municipal, FL, United States (KBOW) 27-57N 081-47W
Jan 25, 2022 - 12:15 AM EST / 2022.01.25 0515 UTC
Wind: Calm:0
Visibility: 10 mile(s):0
Sky conditions: clear
Temperature: 44 F (7 C)
Dew Point: 41 F (5 C)
Relative Humidity: 87%
Pressure (altimeter): 30.03 in. Hg (1016 hPa)
ob: KBOW 250515Z AUTO 00000KT 10SM CLR 07/05 A3003 RMK AO2
cycle: 5

Station Type Date Time Source
KBOW TAF UTC NOAA

Error!

Example: see airport list